sensor_id;sensor_type;location;lat;lon;timestamp;pressure;altitude;pressure_sealevel;temperature;humidity
5872;BME280;2962;51.312;7.378;2022-10-16T00:01:22;97044.28;;;12.39;100.00
5872;BME280;2962;51.312;7.378;2022-10-16T00:03:48;97034.13;;;12.36;100.00
5872;BME280;2962;51.312;7.378;2022-10-16T00:06:15;97046.63;;;12.37;100.00
5872;BME280;2962;51.312;7.378;2022-10-16T00:08:40;97043.91;;;12.30;100.00
5872;BME280;2962;51.312;7.378;2022-10-16T00:11:15;97051.31;;;12.37;100.00
5872;BME280;2962;51.312;7.378;2022-10-16T00:13:42;97034.13;;;12.18;100.00
5872;BME280;2962;51.312;7.378;2022-10-16T00:16:09;97052.84;;;12.20;100.00
5872;BME280;2962;51.312;7.378;2022-10-16T00:18:35;97059.09;;;12.28;100.00
5872;BME280;2962;51.312;7.378;2022-10-16T00:21:03;97053.22;;;12.22;100.00
5872;BME280;2962;51.312;7.378;2022-10-16T00:23:29;97035.69;;;12.19;100.00
5872;BME280;2962;51.312;7.378;2022-10-16T00:26:00;97041.53;;;12.18;100.00
5872;BME280;2962;51.312;7.378;2022-10-16T00:28:27;97054.06;;;12.26;100.00
5872;BME280;2962;51.312;7.378;2022-10-16T00:30:52;97055.63;;;12.38;100.00
5872;BME280;2962;51.312;7.378;2022-10-16T00:33:18;97063.00;;;12.41;100.00
5872;BME280;2962;51.312;7.378;2022-10-16T00:35:43;97066.16;;;12.39;100.00
5872;BME280;2962;51.312;7.378;2022-10-16T00:38:09;97066.91;;;12.36;100.00
5872;BME280;2962;51.312;7.378;2022-10-16T00:40:34;97067.31;;;12.31;100.00
5872;BME280;2962;51.312;7.378;2022-10-16T00:42:59;97053.25;;;12.18;100.00
5872;BME280;2962;51.312;7.378;2022-10-16T00:45:25;97059.88;;;12.17;100.00
5872;BME280;2962;51.312;7.378;2022-10-16T00:47:52;97052.09;;;12.19;100.00
5872;BME280;2962;51.312;7.378;2022-10-16T00:50:31;97056.00;;;12.18;100.00
5872;BME280;2962;51.312;7.378;2022-10-16T00:52:58;97062.22;;;12.19;100.00
5872;BME280;2962;51.312;7.378;2022-10-16T00:55:24;97062.25;;;12.26;100.00
5872;BME280;2962;51.312;7.378;2022-10-16T00:57:51;97056.78;;;12.23;100.00
5872;BME280;2962;51.312;7.378;2022-10-16T01:00:22;97050.53;;;12.15;100.00
5872;BME280;2962;51.312;7.378;2022-10-16T01:02:55;97065.75;;;12.23;100.00
5872;BME280;2962;51.312;7.378;2022-10-16T01:05:22;97063.00;;;12.19;100.00
5872;BME280;2962;51.312;7.378;2022-10-16T01:08:15;97053.25;;;12.26;100.00
5872;BME280;2962;51.312;7.378;2022-10-16T01:13:24;97059.88;;;12.17;100.00
5872;BME280;2962;51.312;7.378;2022-10-16T01:15:55;97065.38;;;12.42;100.00
5872;BME280;2962;51.312;7.378;2022-10-16T01:18:49;97069.63;;;12.26;100.00
5872;BME280;2962;51.312;7.378;2022-10-16T01:21:24;97066.13;;;12.29;100.00
5872;BME280;2962;51.312;7.378;2022-10-16T01:29:21;97070.81;;;12.21;100.00
5872;BME280;2962;51.312;7.378;2022-10-16T01:31:55;97081.72;;;12.14;100.00
5872;BME280;2962;51.312;7.378;2022-10-16T01:34:31;97069.63;;;12.11;100.00
5872;BME280;2962;51.312;7.378;2022-10-16T01:37:03;97069.22;;;12.09;100.00
5872;BME280;2962;51.312;7.378;2022-10-16T01:39:32;97069.63;;;12.11;100.00
5872;BME280;2962;51.312;7.378;2022-10-16T01:42:18;97075.09;;;12.15;100.00
5872;BME280;2962;51.312;7.378;2022-10-16T01:44:47;97075.50;;;12.31;100.00
5872;BME280;2962;51.312;7.378;2022-10-16T01:47:14;97073.16;;;12.37;100.00
5872;BME280;2962;51.312;7.378;2022-10-16T01:49:41;97079.41;;;12.41;100.00
5872;BME280;2962;51.312;7.378;2022-10-16T01:52:16;97067.28;;;12.20;100.00
5872;BME280;2962;51.312;7.378;2022-10-16T01:54:44;97068.44;;;12.05;100.00
5872;BME280;2962;51.312;7.378;2022-10-16T01:57:12;97078.97;;;12.07;100.00
5872;BME280;2962;51.312;7.378;2022-10-16T01:59:42;97068.41;;;12.02;100.00
5872;BME280;2962;51.312;7.378;2022-10-16T02:02:10;97067.25;;;11.92;100.00
5872;BME280;2962;51.312;7.378;2022-10-16T02:04:48;97075.44;;;11.95;100.00
5872;BME280;2962;51.312;7.378;2022-10-16T02:07:17;97072.31;;;11.97;100.00
5872;BME280;2962;51.312;7.378;2022-10-16T02:09:42;97075.41;;;11.85;100.00
5872;BME280;2962;51.312;7.378;2022-10-16T02:12:13;97090.22;;;11.87;100.00
5872;BME280;2962;51.312;7.378;2022-10-16T02:14:41;97084.72;;;11.80;100.00
5872;BME280;2962;51.312;7.378;2022-10-16T02:17:14;97091.00;;;11.84;100.00
5872;BME280;2962;51.312;7.378;2022-10-16T02:19:40;97090.97;;;11.81;100.00
5872;BME280;2962;51.312;7.378;2022-10-16T02:22:08;97086.28;;;11.81;100.00
5872;BME280;2962;51.312;7.378;2022-10-16T02:27:29;97072.25;;;11.83;100.00
5872;BME280;2962;51.312;7.378;2022-10-16T02:30:04;97081.59;;;11.82;100.00
5872;BME280;2962;51.312;7.378;2022-10-16T02:32:34;97071.44;;;11.79;100.00
5872;BME280;2962;51.312;7.378;2022-10-16T02:35:01;97071.84;;;11.77;100.00
5872;BME280;2962;51.312;7.378;2022-10-16T02:37:27;97071.84;;;11.77;100.00
5872;BME280;2962;51.312;7.378;2022-10-16T02:39:55;97073.00;;;11.80;100.00
5872;BME280;2962;51.312;7.378;2022-10-16T02:42:28;97080.88;;;11.85;100.00
5872;BME280;2962;51.312;7.378;2022-10-16T02:44:53;97071.91;;;11.84;100.00
5872;BME280;2962;51.312;7.378;2022-10-16T02:47:18;97057.75;;;11.68;100.00
5872;BME280;2962;51.312;7.378;2022-10-16T02:49:43;97078.50;;;11.87;100.00
5872;BME280;2962;51.312;7.378;2022-10-16T02:52:09;97075.81;;;11.90;100.00
5872;BME280;2962;51.312;7.378;2022-10-16T02:54:34;97071.50;;;11.86;100.00
5872;BME280;2962;51.312;7.378;2022-10-16T02:56:59;97073.09;;;11.97;100.00
5872;BME280;2962;51.312;7.378;2022-10-16T02:59:25;97077.78;;;12.01;100.00
5872;BME280;2962;51.312;7.378;2022-10-16T03:01:50;97070.75;;;11.96;100.00
5872;BME280;2962;51.312;7.378;2022-10-16T03:04:15;97071.53;;;11.96;100.00
5872;BME280;2962;51.312;7.378;2022-10-16T03:06:40;97055.91;;;11.90;100.00
5872;BME280;2962;51.312;7.378;2022-10-16T03:09:06;97057.50;;;11.98;100.00
5872;BME280;2962;51.312;7.378;2022-10-16T03:11:31;97072.72;;;11.95;100.00
5872;BME280;2962;51.312;7.378;2022-10-16T03:13:56;97068.78;;;11.93;100.00
5872;BME280;2962;51.312;7.378;2022-10-16T03:16:22;97074.25;;;11.93;100.00
5872;BME280;2962;51.312;7.378;2022-10-16T03:18:48;97078.97;;;12.00;100.00
5872;BME280;2962;51.312;7.378;2022-10-16T03:21:14;97072.69;;;11.99;100.00
5872;BME280;2962;51.312;7.378;2022-10-16T03:23:39;97067.66;;;12.01;100.00
5872;BME280;2962;51.312;7.378;2022-10-16T03:26:05;97069.16;;;11.91;100.00
5872;BME280;2962;51.312;7.378;2022-10-16T03:28:30;97064.13;;;11.97;100.00
5872;BME280;2962;51.312;7.378;2022-10-16T03:30:55;97041.88;;;11.88;100.00
5872;BME280;2962;51.312;7.378;2022-10-16T03:33:21;97065.66;;;11.87;100.00
5872;BME280;2962;51.312;7.378;2022-10-16T03:35:51;97061.78;;;11.95;100.00
5872;BME280;2962;51.312;7.378;2022-10-16T03:38:17;97061.78;;;11.95;100.00
5872;BME280;2962;51.312;7.378;2022-10-16T03:40:43;97072.31;;;11.93;100.00
5872;BME280;2962;51.312;7.378;2022-10-16T03:43:08;97072.28;;;11.90;100.00
5872;BME280;2962;51.312;7.378;2022-10-16T03:45:33;97076.22;;;11.96;100.00
5872;BME280;2962;51.312;7.378;2022-10-16T03:47:58;97087.50;;;11.91;100.00
5872;BME280;2962;51.312;7.378;2022-10-16T03:50:24;97065.28;;;11.89;100.00
5872;BME280;2962;51.312;7.378;2022-10-16T03:52:49;97089.44;;;11.90;100.00
5872;BME280;2962;51.312;7.378;2022-10-16T03:55:14;97089.47;;;11.94;100.00
5872;BME280;2962;51.312;7.378;2022-10-16T03:57:39;97075.78;;;11.83;100.00
5872;BME280;2962;51.312;7.378;2022-10-16T04:00:05;97084.31;;;11.78;100.00
5872;BME280;2962;51.312;7.378;2022-10-16T04:02:31;97073.00;;;11.80;100.00
5872;BME280;2962;51.312;7.378;2022-10-16T04:04:56;97074.25;;;11.93;100.00
5872;BME280;2962;51.312;7.378;2022-10-16T04:07:21;97078.50;;;11.83;100.00
5872;BME280;2962;51.312;7.378;2022-10-16T04:09:46;97089.44;;;11.90;100.00
5872;BME280;2962;51.312;7.378;2022-10-16T04:12:12;97091.78;;;11.85;100.00
5872;BME280;2962;51.312;7.378;2022-10-16T04:14:37;97087.88;;;11.86;100.00
5872;BME280;2962;51.312;7.378;2022-10-16T04:17:02;97094.94;;;11.97;100.00
5872;BME280;2962;51.312;7.378;2022-10-16T04:19:27;97084.72;;;11.80;100.00
5872;BME280;2962;51.312;7.378;2022-10-16T04:21:53;97095.69;;;11.94;100.00
5872;BME280;2962;51.312;7.378;2022-10-16T04:24:18;97097.25;;;11.85;100.00
5872;BME280;2962;51.312;7.378;2022-10-16T04:26:43;97088.19;;;11.73;100.00
5872;BME280;2962;51.312;7.378;2022-10-16T04:29:08;97112.06;;;11.87;100.00
5872;BME280;2962;51.312;7.378;2022-10-16T04:31:34;97122.13;;;11.80;100.00
5872;BME280;2962;51.312;7.378;2022-10-16T04:33:59;97118.31;;;11.88;100.00
5872;BME280;2962;51.312;7.378;2022-10-16T04:36:24;97108.94;;;11.85;100.00
5872;BME280;2962;51.312;7.378;2022-10-16T04:38:50;97119.47;;;11.87;100.00
5872;BME280;2962;51.312;7.378;2022-10-16T04:41:15;97124.56;;;11.88;100.00
5872;BME280;2962;51.312;7.378;2022-10-16T04:43:40;97128.78;;;11.82;100.00
5872;BME280;2962;51.312;7.378;2022-10-16T04:46:05;97126.50;;;11.84;100.00
5872;BME280;2962;51.312;7.378;2022-10-16T04:48:31;97131.56;;;11.89;100.00
5872;BME280;2962;51.312;7.378;2022-10-16T04:50:57;97129.56;;;11.83;100.00
5872;BME280;2962;51.312;7.378;2022-10-16T04:53:22;97118.63;;;11.79;100.00
5872;BME280;2962;51.312;7.378;2022-10-16T04:55:48;97125.34;;;11.89;100.00
5872;BME280;2962;51.312;7.378;2022-10-16T04:58:13;97123.31;;;11.79;100.00
5872;BME280;2962;51.312;7.378;2022-10-16T05:00:38;97113.94;;;11.80;100.00
5872;BME280;2962;51.312;7.378;2022-10-16T05:03:04;97114.75;;;11.80;100.00
5872;BME280;2962;51.312;7.378;2022-10-16T05:05:32;97130.72;;;11.82;100.00
5872;BME280;2962;51.312;7.378;2022-10-16T05:07:58;97122.91;;;11.77;100.00
5872;BME280;2962;51.312;7.378;2022-10-16T05:10:23;97154.09;;;11.79;100.00
5872;BME280;2962;51.312;7.378;2022-10-16T05:12:48;97152.94;;;11.77;100.00
5872;BME280;2962;51.312;7.378;2022-10-16T05:15:13;97147.06;;;11.71;100.00
5872;BME280;2962;51.312;7.378;2022-10-16T05:17:39;97148.59;;;11.72;100.00
5872;BME280;2962;51.312;7.378;2022-10-16T05:20:05;97142.00;;;11.69;100.00
5872;BME280;2962;51.312;7.378;2022-10-16T05:22:30;97135.75;;;11.69;100.00
5872;BME280;2962;51.312;7.378;2022-10-16T05:24:55;97153.66;;;11.63;100.00
5872;BME280;2962;51.312;7.378;2022-10-16T05:27:21;97179.78;;;11.67;100.00
5872;BME280;2962;51.312;7.378;2022-10-16T05:29:47;97166.53;;;11.66;100.00
5872;BME280;2962;51.312;7.378;2022-10-16T05:32:14;97173.19;;;11.76;100.00
5872;BME280;2962;51.312;7.378;2022-10-16T05:34:39;97164.16;;;11.64;100.00
5872;BME280;2962;51.312;7.378;2022-10-16T05:37:05;97168.81;;;11.60;100.00
5872;BME280;2962;51.312;7.378;2022-10-16T05:39:30;97175.91;;;11.72;100.00
5872;BME280;2962;51.312;7.378;2022-10-16T05:41:55;97173.50;;;11.60;100.00
5872;BME280;2962;51.312;7.378;2022-10-16T05:44:21;97197.72;;;11.72;100.00
5872;BME280;2962;51.312;7.378;2022-10-16T05:46:46;97183.69;;;11.70;100.00
5872;BME280;2962;51.312;7.378;2022-10-16T05:49:12;97179.31;;;11.55;100.00
5872;BME280;2962;51.312;7.378;2022-10-16T05:51:37;97174.25;;;11.57;100.00
5872;BME280;2962;51.312;7.378;2022-10-16T05:54:03;97154.72;;;11.47;100.00
5872;BME280;2962;51.312;7.378;2022-10-16T05:56:28;97183.19;;;11.50;100.00
5872;BME280;2962;51.312;7.378;2022-10-16T05:58:54;97192.97;;;11.55;100.00
5872;BME280;2962;51.312;7.378;2022-10-16T06:01:19;97204.66;;;11.55;100.00
5872;BME280;2962;51.312;7.378;2022-10-16T06:03:50;97199.16;;;11.48;100.00
5872;BME280;2962;51.312;7.378;2022-10-16T06:06:18;97216.34;;;11.56;100.00
5872;BME280;2962;51.312;7.378;2022-10-16T06:08:45;97214.00;;;11.54;100.00
5872;BME280;2962;51.312;7.378;2022-10-16T06:11:13;97210.91;;;11.59;100.00
5872;BME280;2962;51.312;7.378;2022-10-16T06:13:39;97227.69;;;11.58;100.00
5872;BME280;2962;51.312;7.378;2022-10-16T06:16:09;97218.75;;;11.61;100.00
5872;BME280;2962;51.312;7.378;2022-10-16T06:18:35;97205.47;;;11.59;100.00
5872;BME280;2962;51.312;7.378;2022-10-16T06:21:07;97240.53;;;11.57;100.00
5872;BME280;2962;51.312;7.378;2022-10-16T06:23:33;97228.81;;;11.53;100.00
5872;BME280;2962;51.312;7.378;2022-10-16T06:26:14;97233.19;;;11.65;100.00
5872;BME280;2962;51.312;7.378;2022-10-16T06:28:39;97241.41;;;11.68;100.00
5872;BME280;2962;51.312;7.378;2022-10-16T06:31:06;97230.47;;;11.65;100.00
5872;BME280;2962;51.312;7.378;2022-10-16T06:33:32;97234.50;;;11.85;100.00
5872;BME280;2962;51.312;7.378;2022-10-16T06:36:04;97235.69;;;11.88;100.00
5872;BME280;2962;51.312;7.378;2022-10-16T06:38:30;97240.31;;;11.84;100.00
5872;BME280;2962;51.312;7.378;2022-10-16T06:40:56;97247.81;;;11.94;100.00
5872;BME280;2962;51.312;7.378;2022-10-16T06:43:21;97260.34;;;12.06;100.00
5872;BME280;2962;51.312;7.378;2022-10-16T06:45:53;97256.13;;;12.15;100.00
5872;BME280;2962;51.312;7.378;2022-10-16T06:48:20;97254.16;;;12.16;100.00
5872;BME280;2962;51.312;7.378;2022-10-16T06:51:16;97258.13;;;12.33;100.00
5872;BME280;2962;51.312;7.378;2022-10-16T06:53:44;97254.66;;;12.39;100.00
5872;BME280;2962;51.312;7.378;2022-10-16T06:56:13;97260.97;;;12.54;100.00
5872;BME280;2962;51.312;7.378;2022-10-16T06:58:39;97264.88;;;12.53;100.00
5872;BME280;2962;51.312;7.378;2022-10-16T07:01:05;97270.78;;;12.73;100.00
5872;BME280;2962;51.312;7.378;2022-10-16T07:03:31;97284.06;;;12.75;100.00
5872;BME280;2962;51.312;7.378;2022-10-16T07:06:01;97286.75;;;12.67;100.00
5872;BME280;2962;51.312;7.378;2022-10-16T07:08:27;97283.28;;;12.74;100.00
5872;BME280;2962;51.312;7.378;2022-10-16T07:11:03;97289.50;;;12.75;100.00
5872;BME280;2962;51.312;7.378;2022-10-16T07:13:28;97296.59;;;12.90;100.00
5872;BME280;2962;51.312;7.378;2022-10-16T07:15:53;97304.00;;;12.82;100.00
5872;BME280;2962;51.312;7.378;2022-10-16T07:18:19;97302.06;;;12.97;100.00
5872;BME280;2962;51.312;7.378;2022-10-16T07:20:44;97311.47;;;13.10;100.00
5872;BME280;2962;51.312;7.378;2022-10-16T07:23:09;97319.75;;;13.25;100.00
5872;BME280;2962;51.312;7.378;2022-10-16T07:25:35;97327.53;;;13.15;100.00
5872;BME280;2962;51.312;7.378;2022-10-16T07:28:00;97330.66;;;13.21;100.00
5872;BME280;2962;51.312;7.378;2022-10-16T07:30:25;97336.56;;;13.23;100.00
5872;BME280;2962;51.312;7.378;2022-10-16T07:32:50;97327.53;;;13.19;100.00
5872;BME280;2962;51.312;7.378;2022-10-16T07:35:16;97340.41;;;13.11;100.00
5872;BME280;2962;51.312;7.378;2022-10-16T07:37:44;97341.63;;;13.25;100.00
5872;BME280;2962;51.312;7.378;2022-10-16T07:40:10;97341.63;;;13.25;100.00
5872;BME280;2962;51.312;7.378;2022-10-16T07:42:35;97344.78;;;13.34;100.00
5872;BME280;2962;51.312;7.378;2022-10-16T07:45:01;97336.56;;;13.34;100.00
5872;BME280;2962;51.312;7.378;2022-10-16T07:47:26;97351.06;;;13.41;100.00
5872;BME280;2962;51.312;7.378;2022-10-16T07:49:51;97349.47;;;13.40;100.00
5872;BME280;2962;51.312;7.378;2022-10-16T07:52:16;97349.44;;;13.23;100.00
5872;BME280;2962;51.312;7.378;2022-10-16T07:54:42;97350.56;;;13.14;100.00
5872;BME280;2962;51.312;7.378;2022-10-16T07:57:07;97358.38;;;13.09;100.00
5872;BME280;2962;51.312;7.378;2022-10-16T07:59:32;97363.03;;;13.05;100.00
5872;BME280;2962;51.312;7.378;2022-10-16T08:01:57;97361.47;;;13.00;100.00
5872;BME280;2962;51.312;7.378;2022-10-16T08:04:23;97370.13;;;13.16;100.00
5872;BME280;2962;51.312;7.378;2022-10-16T08:06:48;97374.53;;;13.50;100.00
5872;BME280;2962;51.312;7.378;2022-10-16T08:09:14;97373.38;;;13.68;100.00
5872;BME280;2962;51.312;7.378;2022-10-16T08:11:39;97391.34;;;13.70;100.00
5872;BME280;2962;51.312;7.378;2022-10-16T08:14:04;97387.44;;;13.85;100.00
5872;BME280;2962;51.312;7.378;2022-10-16T08:16:30;97390.19;;;13.99;100.00
5872;BME280;2962;51.312;7.378;2022-10-16T08:18:55;97381.53;;;14.33;100.00
5872;BME280;2962;51.312;7.378;2022-10-16T08:21:22;97383.06;;;14.62;100.00
5872;BME280;2962;51.312;7.378;2022-10-16T08:23:50;97387.34;;;14.63;100.00
5872;BME280;2962;51.312;7.378;2022-10-16T08:26:16;97386.16;;;14.72;100.00
5872;BME280;2962;51.312;7.378;2022-10-16T08:28:42;97392.75;;;14.99;100.00
5872;BME280;2962;51.312;7.378;2022-10-16T08:31:08;97403.66;;;15.10;100.00
5872;BME280;2962;51.312;7.378;2022-10-16T08:33:33;97389.59;;;15.01;100.00
5872;BME280;2962;51.312;7.378;2022-10-16T08:36:00;97395.84;;;15.01;100.00
5872;BME280;2962;51.312;7.378;2022-10-16T08:38:26;97388.75;;;15.11;100.00
5872;BME280;2962;51.312;7.378;2022-10-16T08:40:52;97412.97;;;15.30;100.00
5872;BME280;2962;51.312;7.378;2022-10-16T08:48:48;97409.13;;;15.13;100.00
5872;BME280;2962;51.312;7.378;2022-10-16T08:51:39;97432.66;;;15.14;100.00
5872;BME280;2962;51.312;7.378;2022-10-16T08:54:28;97423.97;;;15.27;100.00
5872;BME280;2962;51.312;7.378;2022-10-16T08:56:56;97431.41;;;15.30;100.00
5872;BME280;2962;51.312;7.378;2022-10-16T08:59:22;97427.34;;;15.52;100.00
5872;BME280;2962;51.312;7.378;2022-10-16T09:01:50;97419.19;;;15.45;100.00
5872;BME280;2962;51.312;7.378;2022-10-16T09:04:43;97424.69;;;16.01;100.00
5872;BME280;2962;51.312;7.378;2022-10-16T09:07:20;97427.41;;;16.08;100.00
5872;BME280;2962;51.312;7.378;2022-10-16T09:10:05;97450.16;;;16.08;100.00
5872;BME280;2962;51.312;7.378;2022-10-16T09:12:43;97431.25;;;16.14;100.00
5872;BME280;2962;51.312;7.378;2022-10-16T09:18:06;97436.69;;;16.25;100.00
5872;BME280;2962;51.312;7.378;2022-10-16T09:20:53;97439.38;;;16.77;100.00
5872;BME280;2962;51.312;7.378;2022-10-16T09:23:26;97453.19;;;17.07;100.00
5872;BME280;2962;51.312;7.378;2022-10-16T09:25:52;97441.28;;;16.83;100.00
5872;BME280;2962;51.312;7.378;2022-10-16T09:28:19;97440.97;;;16.71;100.00
5872;BME280;2962;51.312;7.378;2022-10-16T09:30:45;97456.81;;;16.56;100.00
5872;BME280;2962;51.312;7.378;2022-10-16T09:33:12;97452.88;;;16.60;100.00
5872;BME280;2962;51.312;7.378;2022-10-16T09:35:46;97454.59;;;16.40;100.00
5872;BME280;2962;51.312;7.378;2022-10-16T09:38:28;97455.78;;;16.43;100.00
5872;BME280;2962;51.312;7.378;2022-10-16T09:40:56;97459.94;;;16.62;100.00
5872;BME280;2962;51.312;7.378;2022-10-16T09:43:25;97468.84;;;16.73;100.00
5872;BME280;2962;51.312;7.378;2022-10-16T09:48:20;97457.72;;;16.87;100.00
5872;BME280;2962;51.312;7.378;2022-10-16T09:50:58;97460.19;;;17.12;100.00
5872;BME280;2962;51.312;7.378;2022-10-16T09:53:40;97471.69;;;17.38;100.00
5872;BME280;2962;51.312;7.378;2022-10-16T09:56:05;97454.97;;;17.83;100.00
5872;BME280;2962;51.312;7.378;2022-10-16T09:58:32;97470.28;;;18.14;100.00
5872;BME280;2962;51.312;7.378;2022-10-16T10:00:58;97464.00;;;17.83;100.00
5872;BME280;2962;51.312;7.378;2022-10-16T10:03:35;97465.88;;;18.17;100.00
5872;BME280;2962;51.312;7.378;2022-10-16T10:06:21;97482.69;;;18.26;100.00
5872;BME280;2962;51.312;7.378;2022-10-16T10:11:59;97473.16;;;17.46;100.00
5872;BME280;2962;51.312;7.378;2022-10-16T10:14:34;97465.69;;;17.46;100.00
5872;BME280;2962;51.312;7.378;2022-10-16T10:25:00;97484.19;;;17.46;100.00
5872;BME280;2962;51.312;7.378;2022-10-16T10:30:24;97483.22;;;17.90;100.00
5872;BME280;2962;51.312;7.378;2022-10-16T10:33:12;97481.22;;;18.18;100.00
5872;BME280;2962;51.312;7.378;2022-10-16T10:35:45;97478.13;;;18.86;100.00
5872;BME280;2962;51.312;7.378;2022-10-16T10:44:33;97474.28;;;20.65;100.00
5872;BME280;2962;51.312;7.378;2022-10-16T10:47:15;97470.72;;;20.15;100.00
5872;BME280;2962;51.312;7.378;2022-10-16T10:49:57;97469.00;;;19.29;100.00
5872;BME280;2962;51.312;7.378;2022-10-16T10:52:59;97487.16;;;19.50;100.00
5872;BME280;2962;51.312;7.378;2022-10-16T10:56:39;97502.50;;;18.91;100.00
5872;BME280;2962;51.312;7.378;2022-10-16T11:01:20;97484.44;;;18.87;100.00
5872;BME280;2962;51.312;7.378;2022-10-16T11:04:04;97483.63;;;19.49;100.00
5872;BME280;2962;51.312;7.378;2022-10-16T11:06:44;97491.88;;;19.89;100.00
5872;BME280;2962;51.312;7.378;2022-10-16T11:09:17;97487.72;;;19.61;100.00
5872;BME280;2962;51.312;7.378;2022-10-16T11:11:48;97499.69;;;18.95;100.00
5872;BME280;2962;51.312;7.378;2022-10-16T11:17:32;97504.28;;;17.77;100.00
5872;BME280;2962;51.312;7.378;2022-10-16T11:20:16;97500.47;;;17.94;100.00
5872;BME280;2962;51.312;7.378;2022-10-16T11:22:48;97504.97;;;19.06;100.00
5872;BME280;2962;51.312;7.378;2022-10-16T11:25:33;97498.84;;;19.58;100.00
5872;BME280;2962;51.312;7.378;2022-10-16T11:28:09;97495.91;;;19.85;100.00
5872;BME280;2962;51.312;7.378;2022-10-16T11:31:10;97498.63;;;20.86;100.00
5872;BME280;2962;51.312;7.378;2022-10-16T11:34:04;97495.50;;;21.30;100.00
5872;BME280;2962;51.312;7.378;2022-10-16T11:36:38;97492.91;;;20.93;100.00
5872;BME280;2962;51.312;7.378;2022-10-16T11:41:53;97477.31;;;21.58;100.00
5872;BME280;2962;51.312;7.378;2022-10-16T11:44:51;97495.41;;;21.62;100.00
5872;BME280;2962;51.312;7.378;2022-10-16T11:52:48;97486.72;;;22.15;100.00
5872;BME280;2962;51.312;7.378;2022-10-16T11:55:20;97495.75;;;21.90;100.00
5872;BME280;2962;51.312;7.378;2022-10-16T11:57:59;97498.31;;;22.10;100.00
5872;BME280;2962;51.312;7.378;2022-10-16T12:00:58;97498.88;;;22.05;100.00
5872;BME280;2962;51.312;7.378;2022-10-16T12:03:33;97500.91;;;22.17;100.00
5872;BME280;2962;51.312;7.378;2022-10-16T12:06:17;97501.63;;;22.69;100.00
5872;BME280;2962;51.312;7.378;2022-10-16T12:08:48;97491.84;;;23.55;100.00
5872;BME280;2962;51.312;7.378;2022-10-16T12:13:51;97504.63;;;21.98;100.00
5872;BME280;2962;51.312;7.378;2022-10-16T12:18:44;97507.34;;;21.01;100.00
5872;BME280;2962;51.312;7.378;2022-10-16T12:21:11;97523.56;;;21.03;100.00
5872;BME280;2962;51.312;7.378;2022-10-16T12:23:49;97517.53;;;20.91;100.00
5872;BME280;2962;51.312;7.378;2022-10-16T12:26:25;97516.13;;;21.00;100.00
5872;BME280;2962;51.312;7.378;2022-10-16T12:28:51;97523.19;;;21.88;100.00
5872;BME280;2962;51.312;7.378;2022-10-16T12:31:16;97518.41;;;22.65;100.00
5872;BME280;2962;51.312;7.378;2022-10-16T12:33:55;97504.97;;;23.55;100.00
5872;BME280;2962;51.312;7.378;2022-10-16T12:36:47;97512.09;;;23.34;100.00
5872;BME280;2962;51.312;7.378;2022-10-16T12:39:27;97523.53;;;22.54;100.00
5872;BME280;2962;51.312;7.378;2022-10-16T12:42:04;97512.66;;;23.07;100.00
5872;BME280;2962;51.312;7.378;2022-10-16T12:44:34;97510.78;;;23.04;100.00
5872;BME280;2962;51.312;7.378;2022-10-16T12:47:01;97523.63;;;22.63;100.00
5872;BME280;2962;51.312;7.378;2022-10-16T12:49:35;97513.03;;;22.96;100.00
5872;BME280;2962;51.312;7.378;2022-10-16T12:52:01;97513.66;;;23.35;100.00
5872;BME280;2962;51.312;7.378;2022-10-16T12:54:35;97521.88;;;24.54;100.00
5872;BME280;2962;51.312;7.378;2022-10-16T13:00:03;97520.72;;;21.77;100.00
5872;BME280;2962;51.312;7.378;2022-10-16T13:11:17;97520.75;;;23.14;100.00
5872;BME280;2962;51.312;7.378;2022-10-16T13:14:21;97529.88;;;22.16;100.00
5872;BME280;2962;51.312;7.378;2022-10-16T13:17:12;97529.09;;;21.03;100.00
5872;BME280;2962;51.312;7.378;2022-10-16T13:22:57;97524.50;;;19.78;100.00
5872;BME280;2962;51.312;7.378;2022-10-16T13:25:54;97528.75;;;19.63;100.00
5872;BME280;2962;51.312;7.378;2022-10-16T13:28:28;97522.72;;;19.68;100.00
5872;BME280;2962;51.312;7.378;2022-10-16T13:30:57;97519.75;;;20.47;100.00
5872;BME280;2962;51.312;7.378;2022-10-16T13:33:37;97518.25;;;21.66;100.00
5872;BME280;2962;51.312;7.378;2022-10-16T13:36:04;97526.59;;;23.51;100.00
5872;BME280;2962;51.312;7.378;2022-10-16T13:38:32;97533.53;;;24.30;100.00
5872;BME280;2962;51.312;7.378;2022-10-16T13:41:01;97540.84;;;24.87;100.00
5872;BME280;2962;51.312;7.378;2022-10-16T13:43:32;97538.13;;;25.42;100.00
5872;BME280;2962;51.312;7.378;2022-10-16T13:46:16;97549.31;;;26.63;91.53
5872;BME280;2962;51.312;7.378;2022-10-16T13:48:42;97556.72;;;26.33;93.56
5872;BME280;2962;51.312;7.378;2022-10-16T13:51:19;97549.88;;;25.37;100.00
5872;BME280;2962;51.312;7.378;2022-10-16T13:53:45;97554.25;;;25.10;100.00
5872;BME280;2962;51.312;7.378;2022-10-16T13:56:13;97543.16;;;26.08;96.44
5872;BME280;2962;51.312;7.378;2022-10-16T13:58:39;97527.78;;;26.12;95.76
5872;BME280;2962;51.312;7.378;2022-10-16T14:01:13;97536.47;;;26.14;91.61
5872;BME280;2962;51.312;7.378;2022-10-16T14:03:41;97532.91;;;26.04;97.53
5872;BME280;2962;51.312;7.378;2022-10-16T14:06:12;97530.28;;;26.43;89.41
5872;BME280;2962;51.312;7.378;2022-10-16T14:08:42;97522.34;;;27.47;83.23
5872;BME280;2962;51.312;7.378;2022-10-16T14:11:08;97532.13;;;28.11;76.83
5872;BME280;2962;51.312;7.378;2022-10-16T14:13:44;97534.66;;;28.59;73.30
5872;BME280;2962;51.312;7.378;2022-10-16T14:16:16;97551.16;;;28.07;74.12
5872;BME280;2962;51.312;7.378;2022-10-16T14:18:46;97547.69;;;27.97;73.37
5872;BME280;2962;51.312;7.378;2022-10-16T14:21:13;97542.59;;;25.21;99.63
5872;BME280;2962;51.312;7.378;2022-10-16T14:23:41;97546.03;;;23.29;100.00
5872;BME280;2962;51.312;7.378;2022-10-16T14:28:38;97554.97;;;20.47;100.00
5872;BME280;2962;51.312;7.378;2022-10-16T14:31:24;97570.53;;;19.01;100.00
5872;BME280;2962;51.312;7.378;2022-10-16T14:33:50;97559.31;;;18.65;100.00
5872;BME280;2962;51.312;7.378;2022-10-16T14:36:16;97558.84;;;18.43;100.00
5872;BME280;2962;51.312;7.378;2022-10-16T14:38:52;97568.56;;;17.97;100.00
5872;BME280;2962;51.312;7.378;2022-10-16T14:41:22;97565.84;;;17.94;100.00
5872;BME280;2962;51.312;7.378;2022-10-16T14:43:53;97547.84;;;17.86;100.00
5872;BME280;2962;51.312;7.378;2022-10-16T14:46:22;97552.06;;;17.94;100.00